Terminal Aerodrome Forecast
Issued by NWS

Home | Current Version | Previous Version | Text Only | Print | Product List | Glossary On
Versions: 1 2 3 4 5 6 7 8 9 10 11 12 13 14 15 16 17 18 19 20 21 22 23 24 25 26 27
476
FTUS43 KLSX 240412 AAB
TAFSUS
TAF AMD
KSUS 240412Z 2404/2424 05006KT 4SM -RA BR OVC006
      TEMPO 2404/2408 1 1/2SM RA BR
     FM241600 09008KT 4SM BR OVC007
     FM242000 12009KT 4SM -SHRA BR VCTS OVC008CB=

USA.gov is the U.S. government's official web portal to all federal, state and local government web resources and services.